Sierra City, California
Current Conditions -  °F | °C
As of 7:05 PM on Saturday 25 Oct 2014 (Local Time) from KBLU Reporting Station
Overcast Overcast  
Wind Chill: 38°   Ceiling: 1100
Heat Index: 43°   Visibility: 10mi
Dew Point: 39°   Wind: 9mph
Humidity: 86%   Direction: 150°SSE
Pressure: 30.12"   Gusts: 17mph
Location:  39.57°N, 120.64°W
Report Text: KBLU 260205Z AUTO 15008G15KT 10SM SCT007 BKN011 OVC017 06/04 A3012 RMK AO2 T00610039
Loading
Personal Weather Stations






























Interactive Weather Map New forecast layout! Learn more

10-Day Weather Forecast

Advertisements
Track Severe Weather on mobile